DENTE EDLW-

Flight info

Callsign DENTE
Flight time N/A
Altitude
Route
Aircraft C402

Departure

Time 2026-05-01 14:52
Airport Dortmund Airport (EDLW)

Arrival

Time N/A
Airport -
Time Latitude Longitude Altitude Speed Heading
2026-05-01 14:42 51.51162 7.60331 432 ft 0 kts 106°
2026-05-01 14:45 51.51162 7.60330 432 ft 0 kts 105°
2026-05-01 14:46 51.51161 7.60332 444 ft 3 kts 154°
2026-05-01 14:47 51.51168 7.60289 440 ft 9 kts 288°
2026-05-01 14:47 51.51154 7.60198 440 ft 8 kts 273°
2026-05-01 14:47 51.51194 7.60173 442 ft 10 kts 38°
2026-05-01 14:48 51.51308 7.60480 438 ft 20 kts 62°
2026-05-01 14:48 51.51372 7.60663 434 ft 20 kts 59°
2026-05-01 14:48 51.51497 7.61015 427 ft 14 kts 57°
2026-05-01 14:49 51.51562 7.60905 421 ft 13 kts 255°
2026-05-01 14:49 51.51527 7.60703 411 ft 0 kts 272°
2026-05-01 14:51 51.51598 7.60615 409 ft 14 kts 24°
2026-05-01 14:52 51.52037 7.61739 512 ft 102 kts 56°
2026-05-01 14:52 51.52444 7.62759 763 ft 114 kts 59°
2026-05-01 14:52 51.52334 7.65119 1325 ft 123 kts 133°
2026-05-01 14:53 51.51741 7.66203 1565 ft 133 kts 126°
2026-05-01 14:53 51.51203 7.67448 1806 ft 141 kts 121°
2026-05-01 14:53 51.50698 7.68864 2086 ft 151 kts 118°
2026-05-01 14:53 51.50223 7.70428 2228 ft 159 kts 114°
2026-05-01 14:54 51.49799 7.72086 2343 ft 159 kts 116°
2026-05-01 14:54 51.49087 7.73403 2345 ft 166 kts 149°
2026-05-01 14:54 51.48057 7.74255 2184 ft 159 kts 147°
2026-05-01 14:54 51.47175 7.75193 2144 ft 146 kts 141°
2026-05-01 14:55 51.46429 7.76251 2026 ft 140 kts 133°
2026-05-01 14:55 51.45810 7.77402 1967 ft 135 kts 127°
2026-05-01 14:55 51.45281 7.78628 1950 ft 133 kts 118°
2026-05-01 14:55 51.44956 7.80029 1929 ft 135 kts 104°
2026-05-01 14:56 51.44918 7.81547 1783 ft 142 kts 76°
2026-05-01 14:56 51.45514 7.82879 1588 ft 147 kts 52°
2026-05-01 14:56 51.46122 7.84144 1552 ft 141 kts 59°
2026-05-01 14:56 51.46610 7.85411 1361 ft 127 kts 61°
2026-05-01 14:57 51.47054 7.86545 1239 ft 114 kts 59°
2026-05-01 14:57 51.47914 7.88441 881 ft 98 kts 55°
2026-05-01 14:57 51.48392 7.89430 968 ft 129 kts 56°
2026-05-01 14:58 51.48918 7.90452 1520 ft 116 kts 34°
2026-05-01 14:58 51.49792 7.90328 1783 ft 146 kts 328°
2026-05-01 14:58 51.50683 7.89538 2193 ft 150 kts 332°
2026-05-01 14:58 51.51738 7.88804 2244 ft 174 kts 334°
2026-05-01 14:59 51.52845 7.87863 2383 ft 182 kts 326°
2026-05-01 14:59 51.53910 7.86705 2425 ft 180 kts 320°
2026-05-01 14:59 51.54817 7.85529 2404 ft 157 kts 313°
2026-05-01 14:59 51.55543 7.84343 2261 ft 146 kts 313°
2026-05-01 15:00 51.57401 7.82994 1824 ft 144 kts 343°
2026-05-01 15:00 51.58329 7.82678 1820 ft 136 kts 342°
2026-05-01 15:00 51.59285 7.82330 1846 ft 142 kts 347°
2026-05-01 15:01 51.60276 7.82027 1859 ft 146 kts 348°
2026-05-01 15:01 51.61282 7.81805 1868 ft 150 kts 351°
2026-05-01 15:01 51.62326 7.81516 1843 ft 151 kts 347°
2026-05-01 15:01 51.63360 7.81070 1769 ft 157 kts 340°
2026-05-01 15:02 51.64396 7.80490 1710 ft 159 kts 337°
2026-05-01 15:02 51.65075 7.80033 1703 ft 157 kts 333°
2026-05-01 15:02 51.66418 7.78950 1443 ft 170 kts 335°
2026-05-01 15:02 51.67471 7.78108 1405 ft 167 kts 335°
2026-05-01 15:03 51.68513 7.77359 1475 ft 156 kts 342°
2026-05-01 15:03 51.69474 7.76821 1728 ft 144 kts 347°
2026-05-01 15:03 51.70450 7.76404 1848 ft 138 kts 350°
2026-05-01 15:03 51.71406 7.76143 1895 ft 146 kts 356°
2026-05-01 15:04 51.72443 7.75974 2186 ft 160 kts
2026-05-01 15:04 51.73499 7.75822 2792 ft 147 kts 357°
2026-05-01 15:04 51.74566 7.75695 3008 ft 165 kts
2026-05-01 15:04 51.75782 7.75676 2991 ft 186 kts
2026-05-01 15:05 51.77127 7.75711 2981 ft 196 kts
2026-05-01 15:05 51.78451 7.75853 3245 ft 188 kts
2026-05-01 15:05 51.79815 7.75970 3113 ft 199 kts
2026-05-01 15:05 51.81168 7.75651 3217 ft 198 kts 354°
2026-05-01 15:06 51.82581 7.75280 2925 ft 212 kts 353°
2026-05-01 15:06 51.84037 7.74922 2716 ft 217 kts 355°
2026-05-01 15:06 51.85525 7.74681 2557 ft 212 kts 359°
2026-05-01 15:06 51.86917 7.74608 2344 ft 188 kts
2026-05-01 15:07 51.88173 7.74639 2156 ft 177 kts
2026-05-01 15:07 51.89377 7.74638 2030 ft 171 kts
2026-05-01 15:07 51.90558 7.74519 1872 ft 168 kts 359°
2026-05-01 15:07 51.91692 7.74402 1849 ft 159 kts
2026-05-01 15:08 51.92768 7.74244 1832 ft 160 kts 355°
2026-05-01 15:08 51.93885 7.73994 1693 ft 163 kts 355°
2026-05-01 15:08 51.95008 7.73603 1636 ft 174 kts 349°
2026-05-01 15:08 51.96247 7.73132 1681 ft 188 kts 351°
2026-05-01 15:09 51.97572 7.72607 1547 ft 199 kts 349°
2026-05-01 15:09 51.98904 7.72179 1642 ft 194 kts 350°
2026-05-01 15:09 52.00156 7.71218 1541 ft 203 kts 330°
2026-05-01 15:09 52.01371 7.70015 1431 ft 210 kts 331°
2026-05-01 15:10 52.02624 7.68861 1546 ft 204 kts 333°
2026-05-01 15:10 52.05252 7.67409 1618 ft 198 kts 359°
2026-05-01 15:10 52.06635 7.67258 1546 ft 201 kts
2026-05-01 15:11 52.08037 7.66883 1459 ft 205 kts 348°
2026-05-01 15:11 52.10527 7.65147 1122 ft 191 kts 354°
2026-05-01 15:11 52.11720 7.64986 957 ft 130 kts
2026-05-01 15:12 52.12444 7.65219 691 ft 96 kts 36°
2026-05-01 15:12 52.13105 7.66755 264 ft 84 kts 68°
2026-05-01 15:12 52.13281 7.67563 157 ft 60 kts 63°
2026-05-01 15:13 52.13852 7.70278 569 ft 106 kts 82°
2026-05-01 15:14 52.14592 7.72354 1081 ft 124 kts 36°
2026-05-01 15:14 52.15502 7.72369 1254 ft 140 kts 334°
2026-05-01 15:14 52.15798 7.69671 1169 ft 124 kts 248°
2026-05-01 15:15 52.15293 7.66667 1140 ft 150 kts 251°
2026-05-01 15:15 52.14491 7.63889 1101 ft 120 kts 201°
2026-05-01 15:16 52.13189 7.64414 709 ft 90 kts 142°
2026-05-01 15:16 52.12988 7.66225 336 ft 87 kts 73°
2026-05-01 15:17 52.13274 7.67575 157 ft 43 kts 71°
2026-05-01 15:18 52.13764 7.70230 738 ft 93 kts 104°
2026-05-01 15:18 52.13441 7.71339 637 ft 127 kts 130°
2026-05-01 15:19 52.11828 7.74892 1004 ft 158 kts 130°
2026-05-01 15:19 52.10809 7.78183 1057 ft 164 kts 112°
2026-05-01 15:19 52.10508 7.79955 1123 ft 166 kts 111°
2026-05-01 15:20 52.09983 7.83739 1099 ft 175 kts 104°
2026-05-01 15:20 52.09741 7.85714 919 ft 179 kts 105°
2026-05-01 15:20 52.09363 7.87556 1007 ft 169 kts 118°
2026-05-01 15:21 52.08898 7.89293 999 ft 170 kts 115°
2026-05-01 15:21 52.08459 7.91032 1276 ft 144 kts 117°
2026-05-01 15:21 52.08008 7.92585 878 ft 181 kts 119°
2026-05-01 15:21 52.07392 7.94548 286 ft 193 kts 117°
2026-05-01 15:22 52.06464 7.98153 371 ft 159 kts 116°
2026-05-01 15:22 52.06045 7.99824 300 ft 158 kts 114°
2026-05-01 15:22 52.05460 8.01239 268 ft 155 kts 125°
2026-05-01 15:23 52.04870 8.02741 301 ft 157 kts 118°
2026-05-01 15:23 52.04408 8.04300 349 ft 147 kts 121°
2026-05-01 15:23 52.03882 8.05770 470 ft 148 kts 124°
2026-05-01 15:23 52.03050 8.06725 446 ft 159 kts 155°
2026-05-01 15:24 52.02027 8.07178 283 ft 170 kts 184°
2026-05-01 15:24 52.00859 8.07092 246 ft 166 kts 184°
2026-05-01 15:24 51.99713 8.06896 297 ft 165 kts 185°
2026-05-01 15:24 51.98627 8.06529 257 ft 111 kts 199°
2026-05-01 15:25 51.98560 8.06494 199 ft 0 kts 171°
2026-05-01 15:25 51.97928 8.06797 409 ft 183 kts 163°
2026-05-01 15:25 51.96752 8.07073 541 ft 166 kts 194°
2026-05-01 15:25 51.96280 8.06852 248 ft 29 kts 149°
2026-05-01 15:26 51.96252 8.06877 384 ft 0 kts 222°
2026-05-01 15:26 51.95270 8.05782 356 ft 155 kts 204°
2026-05-01 15:26 51.94355 8.04987 367 ft 151 kts 205°
2026-05-01 15:26 51.93491 8.04141 539 ft 136 kts 209°
2026-05-01 15:27 51.92796 8.03200 765 ft 122 kts 209°
2026-05-01 15:27 51.92049 8.02474 769 ft 133 kts 204°
2026-05-01 15:27 51.91231 8.01658 785 ft 140 kts 206°
2026-05-01 15:28 51.89502 7.99970 312 ft 163 kts 201°
2026-05-01 15:28 51.88489 7.99264 321 ft 151 kts 201°
2026-05-01 15:28 51.87624 7.98631 519 ft 129 kts 198°
2026-05-01 15:29 51.85752 7.97892 389 ft 136 kts 188°
2026-05-01 15:29 51.84853 7.97531 417 ft 135 kts 190°
2026-05-01 15:29 51.83029 7.96704 410 ft 141 kts 192°
2026-05-01 15:30 51.81516 7.95514 324 ft 142 kts 205°
2026-05-01 15:31 51.78153 7.91840 901 ft 155 kts 218°
2026-05-01 15:31 51.76522 7.89251 959 ft 169 kts 225°
2026-05-01 15:32 51.74831 7.86496 974 ft 183 kts 217°
2026-05-01 15:32 51.72924 7.83843 868 ft 178 kts 218°
2026-05-01 15:33 51.70190 7.79834 1050 ft 177 kts 216°
2026-05-01 15:34 51.67644 7.75407 1209 ft 180 kts 223°